createdAt,value
2018-01-29T00:00:03.083Z,92.70
2018-01-29T00:02:31.329Z,92.80
2018-01-29T00:04:59.584Z,93.20
2018-01-29T00:07:27.862Z,93.10
2018-01-29T00:09:56.101Z,93.10
2018-01-29T00:12:24.342Z,93.50
2018-01-29T00:14:52.785Z,93.50
2018-01-29T00:17:21.030Z,94.10
2018-01-29T00:19:49.269Z,93.70
2018-01-29T00:22:17.546Z,94.00
2018-01-29T00:24:45.793Z,93.90
2018-01-29T00:27:14.557Z,94.50
2018-01-29T00:29:43.589Z,94.40
2018-01-29T00:32:11.838Z,94.40
2018-01-29T00:34:40.078Z,94.30
2018-01-29T00:37:08.749Z,94.70
2018-01-29T00:39:36.989Z,95.10
2018-01-29T00:42:05.242Z,94.90
2018-01-29T00:44:33.519Z,94.80
2018-01-29T00:47:01.762Z,95.10
2018-01-29T00:49:30.004Z,95.60
2018-01-29T00:51:58.278Z,95.30
2018-01-29T00:54:26.530Z,95.10
2018-01-29T00:56:54.778Z,95.20
2018-01-29T00:59:23.558Z,95.10
2018-01-29T01:01:51.807Z,95.30
2018-01-29T01:04:20.050Z,94.90
2018-01-29T01:06:48.322Z,95.20
2018-01-29T01:09:17.334Z,95.50
2018-01-29T01:11:45.577Z,95.50
2018-01-29T01:14:13.874Z,95.10
2018-01-29T01:16:42.891Z,95.30
2018-01-29T01:19:11.142Z,95.30
2018-01-29T01:21:40.495Z,95.40
2018-01-29T01:24:08.746Z,95.30
2018-01-29T01:26:36.998Z,95.50
2018-01-29T01:29:06.525Z,95.10
2018-01-29T01:31:34.777Z,95.10
2018-01-29T01:34:03.234Z,95.40
2018-01-29T01:36:31.508Z,95.30
2018-01-29T01:38:59.753Z,95.00
2018-01-29T01:41:27.995Z,95.10
2018-01-29T01:43:56.348Z,95.00
2018-01-29T01:46:24.597Z,95.40
2018-01-29T01:48:55.038Z,95.40
2018-01-29T01:51:23.329Z,95.30
2018-01-29T01:53:51.570Z,94.80
2018-01-29T01:56:19.830Z,95.60
2018-01-29T01:58:48.107Z,94.80
2018-01-29T02:01:16.353Z,94.50
2018-01-29T02:03:45.379Z,95.50
2018-01-29T02:06:14.092Z,95.40
2018-01-29T02:08:42.337Z,94.80
2018-01-29T02:11:10.587Z,94.50
2018-01-29T02:13:41.010Z,93.90
2018-01-29T02:16:10.022Z,93.10
2018-01-29T02:18:38.262Z,93.40
2018-01-29T02:21:06.538Z,93.30
2018-01-29T02:23:34.795Z,93.40
2018-01-29T02:26:03.038Z,93.70
2018-01-29T02:28:31.652Z,93.40
2018-01-29T02:31:00.296Z,93.00
2018-01-29T02:33:29.300Z,93.30
2018-01-29T02:35:57.575Z,93.30
2018-01-29T02:38:25.826Z,92.90
2018-01-29T02:40:54.993Z,92.50
2018-01-29T02:43:23.267Z,92.40
2018-01-29T02:45:51.518Z,92.50
2018-01-29T02:48:19.758Z,92.80
2018-01-29T02:50:48.094Z,93.10
2018-01-29T02:53:16.341Z,93.60
2018-01-29T02:55:44.592Z,94.00
2018-01-29T02:58:12.858Z,93.90
2018-01-29T03:00:41.868Z,92.30
2018-01-29T03:03:10.110Z,92.30
2018-01-29T03:05:38.378Z,92.90
2018-01-29T03:08:06.625Z,92.50
2018-01-29T03:10:34.866Z,92.40
2018-01-29T03:13:03.510Z,91.80
2018-01-29T03:15:31.750Z,92.00
2018-01-29T03:18:00.003Z,91.20
2018-01-29T03:20:28.277Z,91.20
2018-01-29T03:22:56.530Z,90.90
2018-01-29T03:25:24.789Z,91.20
2018-01-29T03:27:53.061Z,91.20
2018-01-29T03:30:21.303Z,90.80
2018-01-29T03:32:49.823Z,91.50
2018-01-29T03:35:18.214Z,91.20
2018-01-29T03:37:46.467Z,91.30
2018-01-29T03:40:14.722Z,90.60
2018-01-29T03:42:43.002Z,90.20
2018-01-29T03:45:11.294Z,90.10
2018-01-29T03:47:39.527Z,90.00
2018-01-29T03:50:07.798Z,89.30
2018-01-29T03:52:36.803Z,88.90
2018-01-29T03:55:05.822Z,88.00
2018-01-29T03:57:34.538Z,88.90
2018-01-29T04:00:02.790Z,88.40
2018-01-29T04:02:31.803Z,88.80
2018-01-29T04:05:00.070Z,88.70
2018-01-29T04:07:28.323Z,88.40
2018-01-29T04:09:56.570Z,88.60
2018-01-29T04:12:24.844Z,89.90
2018-01-29T04:14:53.091Z,89.40
2018-01-29T04:17:21.343Z,88.00
2018-01-29T04:19:49.933Z,88.40
2018-01-29T04:22:18.239Z,88.70
2018-01-29T04:24:46.486Z,85.60
2018-01-29T04:27:14.758Z,85.20
2018-01-29T04:29:43.001Z,85.30
2018-01-29T04:32:11.242Z,86.40
2018-01-29T04:34:39.891Z,86.20
2018-01-29T04:37:08.138Z,84.70
2018-01-29T04:39:36.382Z,84.30
2018-01-29T04:42:04.767Z,84.20
2018-01-29T04:44:33.014Z,85.00
2018-01-29T04:47:01.274Z,85.00
2018-01-29T04:49:29.546Z,85.50
2018-01-29T04:51:57.802Z,85.70
2018-01-29T04:54:26.051Z,85.50
2018-01-29T04:56:54.323Z,85.40
2018-01-29T04:59:22.570Z,85.70
2018-01-29T05:01:50.814Z,85.10
2018-01-29T05:04:19.380Z,85.30
2018-01-29T05:06:47.630Z,84.60
2018-01-29T05:09:15.878Z,85.10
2018-01-29T05:11:44.146Z,85.10
2018-01-29T05:14:12.394Z,85.10
2018-01-29T05:16:41.414Z,85.90
2018-01-29T05:19:09.694Z,85.80
2018-01-29T05:21:37.938Z,85.40
2018-01-29T05:24:06.950Z,84.30
2018-01-29T05:26:36.486Z,84.20
2018-01-29T05:29:04.786Z,84.60
2018-01-29T05:31:33.031Z,84.80
2018-01-29T05:34:01.303Z,85.70
2018-01-29T05:36:34.186Z,86.20
2018-01-29T05:39:02.454Z,85.40
2018-01-29T05:41:30.714Z,84.60
2018-01-29T05:43:59.737Z,84.30
2018-01-29T05:46:28.343Z,84.10
2018-01-29T05:48:56.586Z,84.80
2018-01-29T05:51:24.847Z,85.00
2018-01-29T05:53:53.886Z,85.10
2018-01-29T05:56:22.134Z,85.10
2018-01-29T05:58:50.386Z,85.50
2018-01-29T06:01:18.646Z,85.20
2018-01-29T06:03:46.897Z,85.30
2018-01-29T06:06:15.146Z,85.10
2018-01-29T06:08:43.846Z,85.30
2018-01-29T06:11:12.091Z,85.60
2018-01-29T06:13:40.575Z,86.00
2018-01-29T06:16:08.842Z,86.50
2018-01-29T06:18:37.887Z,87.00
2018-01-29T06:21:06.114Z,87.00
2018-01-29T06:23:35.153Z,87.90
2018-01-29T06:26:03.402Z,87.90
2018-01-29T06:28:31.711Z,88.70
2018-01-29T06:31:00.196Z,88.10
2018-01-29T06:33:28.446Z,88.70
2018-01-29T06:35:56.690Z,88.80
2018-01-29T06:38:25.174Z,88.90
2018-01-29T06:40:53.509Z,89.50
2018-01-29T06:43:21.745Z,90.00
2018-01-29T06:45:50.019Z,89.60
2018-01-29T06:48:18.272Z,90.00
2018-01-29T06:50:46.514Z,90.40
2018-01-29T06:53:15.235Z,90.30
2018-01-29T06:55:44.283Z,89.20
2018-01-29T06:58:12.531Z,89.80
2018-01-29T07:00:40.803Z,90.40
2018-01-29T07:03:09.810Z,90.70
2018-01-29T07:05:38.058Z,90.70
2018-01-29T07:08:07.090Z,90.40
2018-01-29T07:10:35.335Z,90.40
2018-01-29T07:13:04.347Z,90.80
2018-01-29T07:15:32.946Z,90.80
2018-01-29T07:18:01.184Z,91.10
2018-01-29T07:20:30.189Z,90.90
2018-01-29T07:22:58.482Z,90.90
2018-01-29T07:25:27.210Z,90.70
2018-01-29T07:27:55.498Z,91.20
2018-01-29T07:30:23.766Z,90.40
2018-01-29T07:32:52.006Z,91.30
2018-01-29T07:35:20.265Z,91.30
2018-01-29T07:37:49.182Z,91.70
2018-01-29T07:40:17.830Z,91.10
2018-01-29T07:42:46.846Z,91.50
2018-01-29T07:45:15.119Z,91.50
2018-01-29T07:47:43.375Z,91.50
2018-01-29T07:50:12.385Z,91.70
2018-01-29T07:52:40.678Z,91.70
2018-01-29T07:55:08.926Z,91.40
2018-01-29T07:57:37.944Z,92.00
2018-01-29T08:00:06.756Z,92.00
2018-01-29T08:02:34.998Z,91.90
2018-01-29T08:05:03.256Z,91.80
2018-01-29T08:07:31.534Z,91.40
2018-01-29T08:10:00.550Z,90.20
2018-01-29T08:12:28.798Z,90.20
2018-01-29T08:14:57.091Z,90.40
2018-01-29T08:17:25.341Z,91.40
2018-01-29T08:19:53.584Z,91.20
2018-01-29T08:22:22.179Z,90.40
2018-01-29T08:24:50.410Z,89.40
2018-01-29T08:27:18.662Z,90.00
2018-01-29T08:29:46.939Z,90.70
2018-01-29T08:32:15.950Z,91.50
2018-01-29T08:34:44.961Z,91.90
2018-01-29T08:37:13.234Z,91.90
2018-01-29T08:39:41.490Z,91.10
2018-01-29T08:42:10.786Z,91.00
2018-01-29T08:44:39.238Z,91.00
2018-01-29T08:47:07.604Z,91.10
2018-01-29T08:49:37.947Z,91.20
2018-01-29T08:52:06.210Z,89.50
2018-01-29T08:54:34.458Z,88.40
2018-01-29T08:57:02.703Z,87.40
2018-01-29T08:59:31.748Z,87.70
2018-01-29T09:01:59.994Z,87.70
2018-01-29T09:04:28.246Z,87.60
2018-01-29T09:06:57.740Z,85.30
2018-01-29T09:09:25.954Z,85.20
2018-01-29T09:11:54.208Z,85.40
2018-01-29T09:14:22.482Z,86.00
2018-01-29T09:16:50.738Z,86.50
2018-01-29T09:19:18.987Z,85.80
2018-01-29T09:21:47.268Z,85.10
2018-01-29T09:24:15.514Z,85.30
2018-01-29T09:26:43.762Z,84.70
2018-01-29T09:29:12.908Z,85.00
2018-01-29T09:31:41.119Z,84.90
2018-01-29T09:34:09.370Z,84.60
2018-01-29T09:36:37.646Z,85.40
2018-01-29T09:39:05.894Z,86.40
2018-01-29T09:41:34.142Z,85.40
2018-01-29T09:44:02.966Z,84.90
2018-01-29T09:46:31.220Z,84.90
2018-01-29T09:49:00.230Z,84.30
2018-01-29T09:51:29.043Z,84.30
2018-01-29T09:53:57.290Z,84.40
2018-01-29T09:56:25.538Z,83.40
2018-01-29T09:58:53.822Z,83.40
2018-01-29T10:01:22.837Z,82.80
2018-01-29T10:03:51.082Z,82.50
2018-01-29T10:06:19.371Z,83.40
2018-01-29T10:08:48.382Z,84.00
2018-01-29T10:11:16.639Z,83.90
2018-01-29T10:13:46.266Z,82.30
2018-01-29T10:16:14.514Z,82.10
2018-01-29T10:18:42.762Z,82.00
2018-01-29T10:21:11.426Z,81.00
2018-01-29T10:23:39.669Z,79.50
2018-01-29T10:26:07.927Z,81.60
2018-01-29T10:28:38.986Z,83.10
2018-01-29T10:31:07.994Z,80.30
2018-01-29T10:33:36.246Z,80.00
2018-01-29T10:36:04.778Z,81.30
2018-01-29T10:38:33.035Z,81.60
2018-01-29T10:41:02.038Z,80.00
2018-01-29T10:43:30.314Z,80.70
2018-01-29T10:46:00.018Z,78.90
2018-01-29T10:48:28.275Z,79.50
2018-01-29T10:50:56.542Z,79.10
2018-01-29T10:53:25.595Z,79.30
2018-01-29T10:55:53.819Z,79.00
2018-01-29T10:58:23.262Z,81.40
2018-01-29T11:00:56.999Z,81.40
2018-01-29T11:03:25.275Z,80.50
2018-01-29T11:05:53.522Z,81.40
2018-01-29T11:08:21.819Z,80.40
2018-01-29T11:10:51.594Z,77.90
2018-01-29T11:13:25.705Z,77.00
2018-01-29T11:15:56.049Z,78.40
2018-01-29T11:18:24.306Z,78.90
2018-01-29T11:20:54.138Z,79.70
2018-01-29T11:23:22.455Z,78.80
2018-01-29T11:25:50.689Z,76.80
2018-01-29T11:28:18.940Z,77.40
2018-01-29T11:30:47.206Z,77.60
2018-01-29T11:33:16.220Z,78.50
2018-01-29T11:35:44.471Z,78.40
2018-01-29T11:38:12.790Z,77.70
2018-01-29T11:40:41.054Z,77.30
2018-01-29T11:43:09.298Z,77.30
2018-01-29T11:45:37.579Z,76.50
2018-01-29T11:48:06.163Z,76.60
2018-01-29T11:50:35.187Z,76.70
2018-01-29T11:53:03.461Z,76.50
2018-01-29T11:55:31.754Z,76.70
2018-01-29T11:58:00.021Z,76.80
2018-01-29T12:00:28.717Z,76.80
2018-01-29T12:02:56.966Z,77.30
2018-01-29T12:05:25.218Z,76.90
2018-01-29T12:07:53.486Z,75.50
2018-01-29T12:10:21.735Z,75.50
2018-01-29T12:12:49.984Z,76.70
2018-01-29T12:15:18.254Z,76.40
2018-01-29T12:17:46.504Z,74.60
2018-01-29T12:20:14.746Z,75.60
2018-01-29T12:22:43.211Z,75.70
2018-01-29T12:25:11.462Z,74.80
2018-01-29T12:27:39.718Z,74.40
2018-01-29T12:30:07.990Z,73.30
2018-01-29T12:32:37.994Z,75.70
2018-01-29T12:35:06.243Z,75.60
2018-01-29T12:37:35.218Z,74.30
2018-01-29T12:40:03.634Z,73.00
2018-01-29T12:42:31.882Z,71.80
2018-01-29T12:45:00.490Z,73.10
2018-01-29T12:47:28.734Z,73.00
2018-01-29T12:49:57.318Z,72.40
2018-01-29T12:52:25.598Z,72.70
2018-01-29T12:54:53.835Z,72.30
2018-01-29T12:57:22.086Z,75.00
2018-01-29T12:59:50.414Z,75.20
2018-01-29T13:02:18.662Z,73.30
2018-01-29T13:04:47.678Z,72.80
2018-01-29T13:07:16.023Z,72.70
2018-01-29T13:09:44.369Z,70.90
2018-01-29T13:12:12.620Z,71.60
2018-01-29T13:14:40.890Z,71.30
2018-01-29T13:17:09.147Z,70.20
2018-01-29T13:19:38.673Z,71.30
2018-01-29T13:22:06.946Z,72.60
2018-01-29T13:24:35.199Z,71.10
2018-01-29T13:27:03.450Z,71.60
2018-01-29T13:29:32.021Z,71.10
2018-01-29T13:32:00.258Z,71.50
2018-01-29T13:34:28.498Z,71.40
2018-01-29T13:36:56.779Z,70.90
2018-01-29T13:39:25.027Z,72.30
2018-01-29T13:41:53.266Z,72.30
2018-01-29T13:44:21.542Z,72.00
2018-01-29T13:46:49.790Z,72.80
2018-01-29T13:49:18.050Z,72.80
2018-01-29T13:51:47.011Z,73.60
2018-01-29T13:54:15.258Z,73.90
2018-01-29T13:56:43.514Z,72.50
2018-01-29T13:59:11.785Z,72.30
2018-01-29T14:01:40.802Z,73.50
2018-01-29T14:04:09.062Z,73.20
2018-01-29T14:06:37.337Z,73.10
2018-01-29T14:09:05.578Z,73.10
2018-01-29T14:11:33.830Z,74.00
2018-01-29T14:14:02.426Z,74.40
2018-01-29T14:16:30.713Z,74.30
2018-01-29T14:18:58.938Z,73.80
2018-01-29T14:21:27.974Z,74.10
2018-01-29T14:23:56.231Z,74.10
2018-01-29T14:26:24.483Z,74.50
2018-01-29T14:28:52.766Z,74.50
2018-01-29T14:31:21.766Z,74.20
2018-01-29T14:33:51.221Z,74.20
2018-01-29T14:36:19.886Z,74.70
2018-01-29T14:38:48.164Z,74.80
2018-01-29T14:41:16.386Z,74.60
2018-01-29T14:43:45.426Z,77.10
2018-01-29T14:46:14.853Z,77.10
2018-01-29T14:48:43.094Z,76.80
2018-01-29T14:51:11.370Z,77.10
2018-01-29T14:53:44.822Z,76.00
2018-01-29T14:56:13.479Z,75.50
2018-01-29T14:58:41.723Z,75.40
2018-01-29T15:01:09.975Z,74.90
2018-01-29T15:03:38.246Z,73.80
2018-01-29T15:06:06.492Z,73.60
2018-01-29T15:08:34.737Z,72.90
2018-01-29T15:11:03.014Z,75.10
2018-01-29T15:13:31.267Z,74.80
2018-01-29T15:16:00.274Z,75.20
2018-01-29T15:18:29.040Z,74.30
2018-01-29T15:20:57.290Z,74.30
2018-01-29T15:23:25.555Z,74.60
2018-01-29T15:25:53.822Z,72.50
2018-01-29T15:28:22.079Z,72.20
2018-01-29T15:30:50.327Z,72.20
2018-01-29T15:33:18.606Z,72.70
2018-01-29T15:35:46.850Z,73.00
2018-01-29T15:38:15.114Z,72.90
2018-01-29T15:40:43.696Z,73.00
2018-01-29T15:43:11.942Z,73.20
2018-01-29T15:45:41.586Z,73.40
2018-01-29T15:48:09.865Z,73.80
2018-01-29T15:50:38.111Z,73.90
2018-01-29T15:53:06.358Z,73.40
2018-01-29T15:55:34.870Z,73.40
2018-01-29T15:58:03.115Z,74.20
2018-01-29T16:00:31.452Z,74.20
2018-01-29T16:03:00.025Z,74.30
2018-01-29T16:05:28.281Z,74.90
2018-01-29T16:07:56.538Z,75.00
2018-01-29T16:10:24.810Z,74.80
2018-01-29T16:12:53.831Z,75.90
2018-01-29T16:15:22.074Z,75.80
2018-01-29T16:17:50.353Z,75.60
2018-01-29T16:20:19.370Z,75.40
2018-01-29T16:22:47.622Z,75.40
2018-01-29T16:25:17.570Z,75.30
2018-01-29T16:27:52.225Z,75.20
2018-01-29T16:30:21.266Z,73.80
2018-01-29T16:32:50.285Z,74.70
2018-01-29T16:35:18.533Z,74.70
2018-01-29T16:37:46.811Z,74.10
2018-01-29T16:40:15.830Z,73.60
2018-01-29T16:42:44.134Z,73.50
2018-01-29T16:45:12.794Z,72.90
2018-01-29T16:47:41.042Z,72.70
2018-01-29T16:50:09.285Z,73.10
2018-01-29T16:52:48.002Z,73.10
2018-01-29T16:55:16.242Z,72.60
2018-01-29T16:57:44.906Z,72.10
2018-01-29T17:00:14.362Z,73.40
2018-01-29T17:02:42.590Z,72.60
2018-01-29T17:05:11.601Z,72.60
2018-01-29T17:07:39.882Z,72.50
2018-01-29T17:10:08.126Z,72.30
2018-01-29T17:12:37.146Z,71.80
2018-01-29T17:15:06.317Z,71.60
2018-01-29T17:17:35.377Z,72.60
2018-01-29T17:20:03.628Z,72.50
2018-01-29T17:22:31.950Z,71.70
2018-01-29T17:25:00.308Z,72.70
2018-01-29T17:27:28.538Z,71.60
2018-01-29T17:29:56.907Z,71.60
2018-01-29T17:32:25.922Z,72.20
2018-01-29T17:34:54.289Z,72.20
2018-01-29T17:37:24.491Z,72.20
2018-01-29T17:39:53.518Z,72.20
2018-01-29T17:42:22.762Z,72.20
2018-01-29T17:44:51.102Z,71.90
2018-01-29T17:47:19.570Z,71.40
2018-01-29T17:49:47.899Z,70.90
2018-01-29T17:52:16.779Z,71.20
2018-01-29T17:54:45.003Z,71.40
2018-01-29T17:57:14.018Z,72.00
2018-01-29T17:59:42.534Z,71.80
2018-01-29T18:02:10.766Z,71.40
2018-01-29T18:04:41.198Z,71.60
2018-01-29T18:07:09.767Z,71.60
2018-01-29T18:09:37.990Z,72.00
2018-01-29T18:12:06.443Z,71.20
2018-01-29T18:14:34.722Z,71.50
2018-01-29T18:17:03.034Z,71.60
2018-01-29T18:19:31.415Z,71.80
2018-01-29T18:21:59.670Z,72.00
2018-01-29T18:24:27.918Z,71.20
2018-01-29T18:26:56.210Z,71.30
2018-01-29T18:29:24.549Z,71.00
2018-01-29T18:31:52.790Z,70.40
2018-01-29T18:34:23.025Z,70.20
2018-01-29T18:36:51.301Z,70.30
2018-01-29T18:39:24.562Z,69.20
2018-01-29T18:41:52.845Z,69.10
2018-01-29T18:44:24.822Z,67.20
2018-01-29T18:46:53.078Z,67.00
2018-01-29T18:49:21.426Z,67.30
2018-01-29T18:51:50.451Z,66.00
2018-01-29T18:54:18.702Z,66.00
2018-01-29T18:56:47.743Z,65.90
2018-01-29T18:59:16.122Z,65.70
2018-01-29T19:01:44.415Z,65.10
2018-01-29T19:04:12.694Z,65.60
2018-01-29T19:06:41.837Z,65.70
2018-01-29T19:09:10.088Z,65.70
2018-01-29T19:11:38.930Z,66.50
2018-01-29T19:14:07.234Z,67.70
2018-01-29T19:16:35.478Z,67.40
2018-01-29T19:19:03.859Z,67.50
2018-01-29T19:21:35.907Z,67.70
2018-01-29T19:24:04.516Z,68.60
2018-01-29T19:26:32.818Z,68.70
2018-01-29T19:29:01.063Z,69.40
2018-01-29T19:31:29.399Z,69.70
2018-01-29T19:33:58.410Z,69.40
2018-01-29T19:36:27.927Z,69.40
2018-01-29T19:38:56.209Z,69.90
2018-01-29T19:41:24.452Z,70.60
2018-01-29T19:43:52.703Z,70.90
2018-01-29T19:46:20.986Z,71.10
2018-01-29T19:48:49.222Z,72.00
2018-01-29T19:51:17.479Z,73.20
2018-01-29T19:53:45.811Z,74.50
2018-01-29T19:56:14.063Z,74.90
2018-01-29T19:58:42.310Z,74.30
2018-01-29T20:01:10.719Z,74.60
2018-01-29T20:03:38.961Z,74.80
2018-01-29T20:06:11.269Z,75.00
2018-01-29T20:08:39.514Z,74.90
2018-01-29T20:11:19.703Z,75.60
2018-01-29T20:13:47.946Z,76.10
2018-01-29T20:16:16.199Z,76.10
2018-01-29T20:18:45.239Z,76.50
2018-01-29T20:21:13.495Z,76.50
2018-01-29T20:23:42.738Z,76.60
2018-01-29T20:26:11.298Z,75.80
2018-01-29T20:28:39.554Z,75.00
2018-01-29T20:31:07.941Z,75.40
2018-01-29T20:33:36.439Z,74.80
2018-01-29T20:36:04.690Z,74.10
2018-01-29T20:38:32.942Z,73.80
2018-01-29T20:41:01.214Z,73.50
2018-01-29T20:43:30.238Z,74.50
2018-01-29T20:45:58.663Z,74.50
2018-01-29T20:48:26.921Z,74.60
2018-01-29T20:50:55.171Z,75.60
2018-01-29T20:53:23.417Z,75.70
2018-01-29T20:55:51.742Z,76.60
2018-01-29T20:58:19.994Z,77.10
2018-01-29T21:00:48.235Z,77.20
2018-01-29T21:03:17.000Z,77.00
2018-01-29T21:05:45.239Z,77.80
2018-01-29T21:08:13.485Z,78.20
2018-01-29T21:10:41.758Z,78.40
2018-01-29T21:13:10.002Z,78.50
2018-01-29T21:15:38.250Z,78.60
2018-01-29T21:18:06.850Z,78.70
2018-01-29T21:20:35.111Z,79.80
2018-01-29T21:23:03.362Z,80.80
2018-01-29T21:25:32.391Z,81.00
2018-01-29T21:28:00.638Z,80.90
2018-01-29T21:30:29.659Z,82.10
2018-01-29T21:32:57.968Z,81.90
2018-01-29T21:35:26.246Z,82.40
2018-01-29T21:37:54.497Z,84.20
2018-01-29T21:40:23.020Z,84.30
2018-01-29T21:42:51.372Z,85.20
2018-01-29T21:45:19.616Z,85.50
2018-01-29T21:47:47.885Z,85.90
2018-01-29T21:50:16.132Z,86.50
2018-01-29T21:52:44.422Z,86.70
2018-01-29T21:55:13.458Z,87.80
2018-01-29T21:57:41.698Z,87.70
2018-01-29T22:00:10.709Z,87.50
2018-01-29T22:02:42.094Z,87.50
2018-01-29T22:05:18.442Z,88.20
2018-01-29T22:07:46.711Z,88.70
2018-01-29T22:10:15.030Z,88.70
2018-01-29T22:12:43.275Z,88.50
2018-01-29T22:15:11.583Z,88.60
2018-01-29T22:17:39.791Z,88.30
2018-01-29T22:20:08.038Z,87.70
2018-01-29T22:22:37.621Z,88.10
2018-01-29T22:25:08.531Z,89.00
2018-01-29T22:27:36.766Z,88.70
2018-01-29T22:30:05.047Z,89.10
2018-01-29T22:32:33.293Z,88.70
2018-01-29T22:35:01.539Z,89.30
2018-01-29T22:37:29.818Z,89.30
2018-01-29T22:39:58.071Z,89.90
2018-01-29T22:42:27.086Z,90.50
2018-01-29T22:44:55.466Z,90.50
2018-01-29T22:47:23.719Z,91.60
2018-01-29T22:49:52.053Z,92.40
2018-01-29T22:52:20.306Z,92.90
2018-01-29T22:54:48.550Z,93.10
2018-01-29T22:57:16.794Z,93.30
2018-01-29T22:59:45.072Z,94.60
2018-01-29T23:02:13.314Z,94.40
2018-01-29T23:04:41.562Z,93.90
2018-01-29T23:07:11.212Z,94.20
2018-01-29T23:09:43.254Z,94.20
2018-01-29T23:12:11.502Z,93.60
2018-01-29T23:14:39.783Z,93.10
2018-01-29T23:17:16.446Z,92.40
2018-01-29T23:19:44.723Z,92.40
2018-01-29T23:22:29.526Z,92.70
2018-01-29T23:24:57.941Z,92.50
2018-01-29T23:27:26.190Z,93.00
2018-01-29T23:29:54.434Z,92.70
2018-01-29T23:32:23.478Z,94.20
2018-01-29T23:34:51.722Z,94.10
2018-01-29T23:37:19.968Z,95.90
2018-01-29T23:39:49.003Z,97.00
2018-01-29T23:42:17.251Z,97.00
2018-01-29T23:44:48.459Z,98.10
2018-01-29T23:47:16.794Z,98.10
2018-01-29T23:49:45.040Z,98.30
2018-01-29T23:52:14.046Z,99.90
2018-01-29T23:54:42.314Z,99.90
2018-01-29T23:57:11.321Z,99.90
2018-01-29T23:59:39.569Z,99.90
